sensor_id;sensor_type;location;lat;lon;timestamp;pressure;altitude;pressure_sealevel;temperature;humidity
51297;BME280;37380;45.186;9.792;2023-04-26T00:02:17;100456.75;;;7.60;100.00
51297;BME280;37380;45.186;9.792;2023-04-26T00:04:45;100647.94;;;8.31;100.00
51297;BME280;37380;45.186;9.792;2023-04-26T00:07:13;100682.38;;;8.24;100.00
51297;BME280;37380;45.186;9.792;2023-04-26T00:09:41;100592.00;;;7.81;100.00
51297;BME280;37380;45.186;9.792;2023-04-26T00:12:10;100742.44;;;8.89;100.00
51297;BME280;37380;45.186;9.792;2023-04-26T00:14:37;100545.78;;;7.55;100.00
51297;BME280;37380;45.186;9.792;2023-04-26T00:17:05;100648.84;;;8.32;100.00
51297;BME280;37380;45.186;9.792;2023-04-26T00:19:32;100526.22;;;7.43;100.00
51297;BME280;37380;45.186;9.792;2023-04-26T00:21:59;100696.44;;;8.68;100.00
51297;BME280;37380;45.186;9.792;2023-04-26T00:24:26;100701.38;;;8.83;100.00
51297;BME280;37380;45.186;9.792;2023-04-26T00:26:54;100742.56;;;8.92;100.00
51297;BME280;37380;45.186;9.792;2023-04-26T00:29:28;100726.56;;;8.82;100.00
51297;BME280;37380;45.186;9.792;2023-04-26T00:32:29;100628.38;;;8.20;100.00
51297;BME280;37380;45.186;9.792;2023-04-26T00:35:24;100699.06;;;8.49;100.00
51297;BME280;37380;45.186;9.792;2023-04-26T00:37:51;100710.34;;;8.49;100.00
51297;BME280;37380;45.186;9.792;2023-04-26T00:40:19;100714.13;;;8.36;100.00
51297;BME280;37380;45.186;9.792;2023-04-26T00:42:46;100753.72;;;8.68;100.00
51297;BME280;37380;45.186;9.792;2023-04-26T00:45:13;100640.91;;;7.88;100.00
51297;BME280;37380;45.186;9.792;2023-04-26T00:47:41;100588.59;;;7.43;100.00
51297;BME280;37380;45.186;9.792;2023-04-26T00:50:08;100495.50;;;6.96;100.00
51297;BME280;37380;45.186;9.792;2023-04-26T00:52:36;100550.09;;;7.35;100.00
51297;BME280;37380;45.186;9.792;2023-04-26T00:55:05;100597.28;;;7.63;100.00
51297;BME280;37380;45.186;9.792;2023-04-26T00:57:33;100636.94;;;7.77;100.00
51297;BME280;37380;45.186;9.792;2023-04-26T01:00:00;100721.66;;;8.30;100.00
51297;BME280;37380;45.186;9.792;2023-04-26T01:02:28;100705.88;;;8.06;100.00
51297;BME280;37380;45.186;9.792;2023-04-26T01:04:55;100664.59;;;7.94;100.00
51297;BME280;37380;45.186;9.792;2023-04-26T01:07:22;100645.88;;;7.84;100.00
51297;BME280;37380;45.186;9.792;2023-04-26T01:09:50;100701.41;;;8.23;100.00
51297;BME280;37380;45.186;9.792;2023-04-26T01:12:20;100678.03;;;8.25;100.00
51297;BME280;37380;45.186;9.792;2023-04-26T01:14:48;100651.66;;;8.17;100.00
51297;BME280;37380;45.186;9.792;2023-04-26T01:17:16;100627.22;;;8.13;100.00
51297;BME280;37380;45.186;9.792;2023-04-26T01:19:48;100570.00;;;7.94;100.00
51297;BME280;37380;45.186;9.792;2023-04-26T01:22:18;100600.94;;;8.07;100.00
51297;BME280;37380;45.186;9.792;2023-04-26T01:24:48;100615.16;;;7.94;100.00
51297;BME280;37380;45.186;9.792;2023-04-26T01:27:16;100658.19;;;8.07;100.00
51297;BME280;37380;45.186;9.792;2023-04-26T01:29:49;100612.69;;;7.78;100.00
51297;BME280;37380;45.186;9.792;2023-04-26T01:32:44;100734.00;;;8.54;100.00
51297;BME280;37380;45.186;9.792;2023-04-26T01:35:11;100621.66;;;7.65;100.00
51297;BME280;37380;45.186;9.792;2023-04-26T01:37:39;100735.66;;;8.13;100.00
51297;BME280;37380;45.186;9.792;2023-04-26T01:40:06;100696.63;;;7.74;100.00
51297;BME280;37380;45.186;9.792;2023-04-26T01:42:36;100668.16;;;7.77;100.00
51297;BME280;37380;45.186;9.792;2023-04-26T01:45:10;100694.75;;;7.71;100.00
51297;BME280;37380;45.186;9.792;2023-04-26T01:48:29;100737.63;;;7.99;100.00
51297;BME280;37380;45.186;9.792;2023-04-26T01:51:23;100764.97;;;8.09;100.00
51297;BME280;37380;45.186;9.792;2023-04-26T01:53:50;100507.97;;;6.48;100.00
51297;BME280;37380;45.186;9.792;2023-04-26T01:56:18;100552.56;;;6.94;100.00
51297;BME280;37380;45.186;9.792;2023-04-26T01:58:45;100532.66;;;6.75;100.00
51297;BME280;37380;45.186;9.792;2023-04-26T02:01:12;100696.75;;;7.77;100.00
51297;BME280;37380;45.186;9.792;2023-04-26T02:03:40;100532.41;;;6.71;100.00
51297;BME280;37380;45.186;9.792;2023-04-26T02:06:07;100773.56;;;8.08;100.00
51297;BME280;37380;45.186;9.792;2023-04-26T02:08:35;100626.53;;;7.20;100.00
51297;BME280;37380;45.186;9.792;2023-04-26T02:11:02;100613.56;;;7.02;100.00
51297;BME280;37380;45.186;9.792;2023-04-26T02:13:33;100738.94;;;7.89;100.00
51297;BME280;37380;45.186;9.792;2023-04-26T02:16:00;100744.88;;;7.87;100.00
51297;BME280;37380;45.186;9.792;2023-04-26T02:18:27;100723.50;;;7.94;100.00
51297;BME280;37380;45.186;9.792;2023-04-26T02:20:55;100743.25;;;8.08;100.00
51297;BME280;37380;45.186;9.792;2023-04-26T02:23:23;100741.25;;;8.22;100.00
51297;BME280;37380;45.186;9.792;2023-04-26T02:25:56;100716.63;;;7.94;100.00
51297;BME280;37380;45.186;9.792;2023-04-26T02:28:57;100716.53;;;7.93;100.00
51297;BME280;37380;45.186;9.792;2023-04-26T02:31:52;100770.03;;;8.06;100.00
51297;BME280;37380;45.186;9.792;2023-04-26T02:34:19;100775.47;;;8.30;100.00
51297;BME280;37380;45.186;9.792;2023-04-26T02:36:46;100639.34;;;7.35;100.00
51297;BME280;37380;45.186;9.792;2023-04-26T02:39:14;100692.81;;;7.67;100.00
51297;BME280;37380;45.186;9.792;2023-04-26T02:41:42;100809.78;;;8.41;100.00
51297;BME280;37380;45.186;9.792;2023-04-26T02:44:09;100749.84;;;8.00;100.00
51297;BME280;37380;45.186;9.792;2023-04-26T02:46:37;100768.66;;;8.33;100.00
51297;BME280;37380;45.186;9.792;2023-04-26T02:49:04;100738.88;;;7.70;100.00
51297;BME280;37380;45.186;9.792;2023-04-26T02:51:31;100752.16;;;7.57;100.00
51297;BME280;37380;45.186;9.792;2023-04-26T02:53:59;100689.03;;;7.23;100.00
51297;BME280;37380;45.186;9.792;2023-04-26T02:56:26;100579.00;;;6.68;100.00
51297;BME280;37380;45.186;9.792;2023-04-26T02:58:53;100677.09;;;6.91;100.00
51297;BME280;37380;45.186;9.792;2023-04-26T03:01:27;100471.22;;;5.86;100.00
51297;BME280;37380;45.186;9.792;2023-04-26T03:04:32;100502.09;;;5.98;100.00
51297;BME280;37380;45.186;9.792;2023-04-26T03:07:34;100706.25;;;7.39;100.00
51297;BME280;37380;45.186;9.792;2023-04-26T03:10:24;100496.91;;;6.34;100.00
51297;BME280;37380;45.186;9.792;2023-04-26T03:13:22;100521.81;;;6.12;100.00
51297;BME280;37380;45.186;9.792;2023-04-26T03:15:51;100691.41;;;7.37;100.00
51297;BME280;37380;45.186;9.792;2023-04-26T03:18:20;100699.63;;;7.46;100.00
51297;BME280;37380;45.186;9.792;2023-04-26T03:20:48;100509.97;;;6.18;100.00
51297;BME280;37380;45.186;9.792;2023-04-26T03:23:16;100715.84;;;7.05;100.00
51297;BME280;37380;45.186;9.792;2023-04-26T03:25:43;100537.16;;;5.92;100.00
51297;BME280;37380;45.186;9.792;2023-04-26T03:28:18;100734.34;;;7.11;100.00
51297;BME280;37380;45.186;9.792;2023-04-26T03:31:12;100511.88;;;6.22;100.00
51297;BME280;37380;45.186;9.792;2023-04-26T03:33:39;100807.25;;;7.85;100.00
51297;BME280;37380;45.186;9.792;2023-04-26T03:36:06;100517.94;;;6.04;100.00
51297;BME280;37380;45.186;9.792;2023-04-26T03:38:34;100502.00;;;5.62;100.00
51297;BME280;37380;45.186;9.792;2023-04-26T03:41:02;100509.41;;;5.73;100.00
51297;BME280;37380;45.186;9.792;2023-04-26T03:43:29;100711.63;;;6.54;100.00
51297;BME280;37380;45.186;9.792;2023-04-26T03:45:59;100553.91;;;5.48;100.00
51297;BME280;37380;45.186;9.792;2023-04-26T03:48:27;100515.06;;;5.48;100.00
51297;BME280;37380;45.186;9.792;2023-04-26T03:50:54;100546.31;;;5.51;100.00
51297;BME280;37380;45.186;9.792;2023-04-26T03:53:22;100539.88;;;5.60;100.00
51297;BME280;37380;45.186;9.792;2023-04-26T03:55:49;100528.78;;;5.63;100.00
51297;BME280;37380;45.186;9.792;2023-04-26T03:58:17;100520.91;;;5.78;100.00
51297;BME280;37380;45.186;9.792;2023-04-26T04:00:44;100666.84;;;6.42;100.00
51297;BME280;37380;45.186;9.792;2023-04-26T04:03:12;100522.88;;;5.65;100.00
51297;BME280;37380;45.186;9.792;2023-04-26T04:05:39;100515.47;;;5.22;100.00
51297;BME280;37380;45.186;9.792;2023-04-26T04:08:07;100547.03;;;5.64;100.00
51297;BME280;37380;45.186;9.792;2023-04-26T04:10:41;100611.06;;;6.16;100.00
51297;BME280;37380;45.186;9.792;2023-04-26T04:13:42;100788.16;;;7.13;100.00
51297;BME280;37380;45.186;9.792;2023-04-26T04:16:37;100787.19;;;7.29;100.00
51297;BME280;37380;45.186;9.792;2023-04-26T04:19:04;100806.94;;;7.08;100.00
51297;BME280;37380;45.186;9.792;2023-04-26T04:21:32;100812.75;;;7.03;100.00
51297;BME280;37380;45.186;9.792;2023-04-26T04:23:59;100725.81;;;6.61;100.00
51297;BME280;37380;45.186;9.792;2023-04-26T04:26:27;100733.91;;;6.51;100.00
51297;BME280;37380;45.186;9.792;2023-04-26T04:29:01;100790.22;;;7.02;100.00
51297;BME280;37380;45.186;9.792;2023-04-26T04:32:01;100500.97;;;5.42;100.00
51297;BME280;37380;45.186;9.792;2023-04-26T04:34:57;100554.97;;;5.51;100.00
51297;BME280;37380;45.186;9.792;2023-04-26T04:37:25;100586.59;;;5.78;100.00
51297;BME280;37380;45.186;9.792;2023-04-26T04:39:54;100527.56;;;5.73;100.00
51297;BME280;37380;45.186;9.792;2023-04-26T04:42:22;100623.97;;;6.15;100.00
51297;BME280;37380;45.186;9.792;2023-04-26T04:44:49;100545.78;;;5.90;100.00
51297;BME280;37380;45.186;9.792;2023-04-26T04:47:18;100731.59;;;7.25;100.00
51297;BME280;37380;45.186;9.792;2023-04-26T04:49:46;100545.03;;;6.63;100.00
51297;BME280;37380;45.186;9.792;2023-04-26T04:52:13;100523.06;;;7.12;100.00
51297;BME280;37380;45.186;9.792;2023-04-26T04:54:44;100562.16;;;7.92;100.00
51297;BME280;37380;45.186;9.792;2023-04-26T04:57:12;100723.75;;;10.10;100.00
51297;BME280;37380;45.186;9.792;2023-04-26T04:59:40;100565.91;;;8.83;100.00
51297;BME280;37380;45.186;9.792;2023-04-26T05:02:09;100591.91;;;9.04;100.00
51297;BME280;37380;45.186;9.792;2023-04-26T05:04:37;100565.00;;;9.27;100.00
51297;BME280;37380;45.186;9.792;2023-04-26T05:07:38;100882.25;;;11.56;100.00
51297;BME280;37380;45.186;9.792;2023-04-26T05:10:13;100775.66;;;11.78;100.00
51297;BME280;37380;45.186;9.792;2023-04-26T05:13:14;100620.91;;;11.10;100.00
51297;BME280;37380;45.186;9.792;2023-04-26T05:16:18;100814.56;;;12.85;100.00
51297;BME280;37380;45.186;9.792;2023-04-26T05:19:13;100629.13;;;11.51;100.00
51297;BME280;37380;45.186;9.792;2023-04-26T05:21:40;100636.38;;;12.21;100.00
51297;BME280;37380;45.186;9.792;2023-04-26T05:24:08;100757.28;;;13.00;100.00
51297;BME280;37380;45.186;9.792;2023-04-26T05:26:42;100915.34;;;14.31;100.00
51297;BME280;37380;45.186;9.792;2023-04-26T05:30:02;100607.81;;;11.69;100.00
51297;BME280;37380;45.186;9.792;2023-04-26T05:33:11;100816.94;;;15.01;100.00
51297;BME280;37380;45.186;9.792;2023-04-26T05:35:54;100808.41;;;15.16;100.00
51297;BME280;37380;45.186;9.792;2023-04-26T05:38:26;100713.41;;;15.57;99.39
51297;BME280;37380;45.186;9.792;2023-04-26T05:40:55;100673.38;;;15.81;97.20
51297;BME280;37380;45.186;9.792;2023-04-26T05:43:23;100917.09;;;17.45;95.36
51297;BME280;37380;45.186;9.792;2023-04-26T05:45:54;100918.66;;;17.27;97.68
51297;BME280;37380;45.186;9.792;2023-04-26T05:48:31;100684.44;;;15.57;100.00
51297;BME280;37380;45.186;9.792;2023-04-26T05:51:32;100662.53;;;15.61;100.00
51297;BME280;37380;45.186;9.792;2023-04-26T05:54:33;100877.75;;;16.88;100.00
51297;BME280;37380;45.186;9.792;2023-04-26T05:57:18;100682.06;;;16.48;93.72
51297;BME280;37380;45.186;9.792;2023-04-26T05:59:48;100688.84;;;17.15;90.65
51297;BME280;37380;45.186;9.792;2023-04-26T06:02:16;100661.63;;;17.22;91.39
51297;BME280;37380;45.186;9.792;2023-04-26T06:04:46;100725.56;;;18.14;82.65
51297;BME280;37380;45.186;9.792;2023-04-26T06:32:31;100722.84;;;17.97;81.55
51297;BME280;37380;45.186;9.792;2023-04-26T06:35:41;100947.03;;;18.49;88.71
51297;BME280;37380;45.186;9.792;2023-04-26T06:38:10;100760.00;;;17.01;89.97
51297;BME280;37380;45.186;9.792;2023-04-26T06:40:39;100846.63;;;17.40;89.12
51297;BME280;37380;45.186;9.792;2023-04-26T06:43:07;100760.25;;;17.33;94.30
51297;BME280;37380;45.186;9.792;2023-04-26T06:45:51;100966.94;;;19.49;85.20
51297;BME280;37380;45.186;9.792;2023-04-26T06:48:19;100726.44;;;18.16;89.61
51297;BME280;37380;45.186;9.792;2023-04-26T06:50:48;100943.09;;;19.52;94.39
51297;BME280;37380;45.186;9.792;2023-04-26T06:53:15;100758.97;;;17.95;88.19
51297;BME280;37380;45.186;9.792;2023-04-26T06:55:42;100873.28;;;20.04;77.90
51297;BME280;37380;45.186;9.792;2023-04-26T06:58:10;100790.31;;;17.48;85.71
51297;BME280;37380;45.186;9.792;2023-04-26T07:00:37;100834.59;;;16.83;92.88
51297;BME280;37380;45.186;9.792;2023-04-26T07:03:04;100951.28;;;18.22;89.45
51297;BME280;37380;45.186;9.792;2023-04-26T07:05:32;100887.16;;;14.63;100.00
51297;BME280;37380;45.186;9.792;2023-04-26T07:08:03;100966.22;;;15.10;100.00
51297;BME280;37380;45.186;9.792;2023-04-26T07:10:40;100880.41;;;14.74;100.00
51297;BME280;37380;45.186;9.792;2023-04-26T07:13:41;100749.75;;;15.78;97.24
51297;BME280;37380;45.186;9.792;2023-04-26T07:17:51;100974.13;;;14.70;100.00
51297;BME280;37380;45.186;9.792;2023-04-26T07:21:05;100978.59;;;15.59;100.00
51297;BME280;37380;45.186;9.792;2023-04-26T07:23:37;100720.88;;;15.87;100.00
51297;BME280;37380;45.186;9.792;2023-04-26T07:26:11;100881.50;;;15.81;97.37
51297;BME280;37380;45.186;9.792;2023-04-26T07:28:45;100810.34;;;15.79;97.22
51297;BME280;37380;45.186;9.792;2023-04-26T07:31:44;100697.25;;;14.78;95.80
51297;BME280;37380;45.186;9.792;2023-04-26T07:34:14;100737.47;;;15.24;93.43
51297;BME280;37380;45.186;9.792;2023-04-26T07:36:46;100836.72;;;16.43;91.35
51297;BME280;37380;45.186;9.792;2023-04-26T07:39:14;100839.75;;;15.02;99.96
51297;BME280;37380;45.186;9.792;2023-04-26T07:41:41;100864.16;;;16.58;98.87
51297;BME280;37380;45.186;9.792;2023-04-26T07:44:10;100757.50;;;17.18;87.54
51297;BME280;37380;45.186;9.792;2023-04-26T07:46:43;100897.06;;;17.70;87.18
51297;BME280;37380;45.186;9.792;2023-04-26T07:49:57;100893.94;;;15.90;94.10
51297;BME280;37380;45.186;9.792;2023-04-26T07:53:00;100727.34;;;14.95;100.00
51297;BME280;37380;45.186;9.792;2023-04-26T07:55:55;100735.69;;;13.85;100.00
51297;BME280;37380;45.186;9.792;2023-04-26T07:58:22;100858.94;;;16.64;100.00
51297;BME280;37380;45.186;9.792;2023-04-26T08:00:50;100742.88;;;16.62;93.81
51297;BME280;37380;45.186;9.792;2023-04-26T08:03:18;100919.00;;;17.61;88.34
51297;BME280;37380;45.186;9.792;2023-04-26T08:05:47;100739.22;;;17.41;84.97
51297;BME280;37380;45.186;9.792;2023-04-26T08:08:16;100922.63;;;19.04;82.08
51297;BME280;37380;45.186;9.792;2023-04-26T08:10:51;100988.59;;;16.88;94.72
51297;BME280;37380;45.186;9.792;2023-04-26T08:13:45;100930.13;;;16.61;93.29
51297;BME280;37380;45.186;9.792;2023-04-26T08:16:12;100929.97;;;18.01;90.11
51297;BME280;37380;45.186;9.792;2023-04-26T08:18:39;100972.16;;;17.90;82.58
51297;BME280;37380;45.186;9.792;2023-04-26T08:21:10;100871.16;;;16.54;90.16
51297;BME280;37380;45.186;9.792;2023-04-26T08:23:38;100890.59;;;17.34;82.19
51297;BME280;37380;45.186;9.792;2023-04-26T08:26:08;100942.38;;;17.19;86.90
51297;BME280;37380;45.186;9.792;2023-04-26T08:28:42;100885.16;;;17.20;81.68
51297;BME280;37380;45.186;9.792;2023-04-26T08:31:43;100965.22;;;17.19;83.71
51297;BME280;37380;45.186;9.792;2023-04-26T08:34:37;100999.69;;;17.30;85.76
51297;BME280;37380;45.186;9.792;2023-04-26T08:37:07;100935.31;;;15.95;91.68
51297;BME280;37380;45.186;9.792;2023-04-26T08:39:34;100937.72;;;16.36;100.00
51297;BME280;37380;45.186;9.792;2023-04-26T08:42:14;100962.09;;;17.54;87.81
51297;BME280;37380;45.186;9.792;2023-04-26T08:44:43;100997.66;;;15.93;91.12
51297;BME280;37380;45.186;9.792;2023-04-26T08:50:00;100952.31;;;16.13;89.84
51297;BME280;37380;45.186;9.792;2023-04-26T08:52:30;100899.41;;;15.03;86.43
51297;BME280;37380;45.186;9.792;2023-04-26T08:59:41;100741.94;;;14.34;87.15
51297;BME280;37380;45.186;9.792;2023-04-26T09:02:21;100987.16;;;16.49;83.00
51297;BME280;37380;45.186;9.792;2023-04-26T09:05:00;101005.25;;;17.56;78.63
51297;BME280;37380;45.186;9.792;2023-04-26T09:07:31;101014.81;;;17.43;70.63
51297;BME280;37380;45.186;9.792;2023-04-26T09:10:10;101000.63;;;17.35;70.06
51297;BME280;37380;45.186;9.792;2023-04-26T09:13:17;100919.25;;;17.00;71.61
51297;BME280;37380;45.186;9.792;2023-04-26T09:16:11;100993.09;;;16.94;75.02
51297;BME280;37380;45.186;9.792;2023-04-26T09:18:50;100985.69;;;18.25;69.92
51297;BME280;37380;45.186;9.792;2023-04-26T09:21:21;100845.19;;;16.86;74.05
51297;BME280;37380;45.186;9.792;2023-04-26T09:24:01;101014.25;;;17.73;71.50
51297;BME280;37380;45.186;9.792;2023-04-26T09:26:31;100879.31;;;17.53;70.83
51297;BME280;37380;45.186;9.792;2023-04-26T09:29:17;101016.00;;;18.70;76.24
51297;BME280;37380;45.186;9.792;2023-04-26T09:32:14;100928.63;;;18.66;67.28
51297;BME280;37380;45.186;9.792;2023-04-26T09:34:45;100871.22;;;17.36;68.67
51297;BME280;37380;45.186;9.792;2023-04-26T09:37:16;100728.81;;;17.67;68.06
51297;BME280;37380;45.186;9.792;2023-04-26T09:39:46;100974.94;;;19.89;73.66
51297;BME280;37380;45.186;9.792;2023-04-26T09:42:16;100836.16;;;19.49;67.05
51297;BME280;37380;45.186;9.792;2023-04-26T09:44:44;100861.72;;;20.32;63.45
51297;BME280;37380;45.186;9.792;2023-04-26T09:47:12;100974.69;;;21.30;60.99
51297;BME280;37380;45.186;9.792;2023-04-26T09:49:47;100967.88;;;20.48;60.21
51297;BME280;37380;45.186;9.792;2023-04-26T09:52:17;100971.13;;;18.90;66.96
51297;BME280;37380;45.186;9.792;2023-04-26T09:57:13;100927.69;;;18.56;65.73
51297;BME280;37380;45.186;9.792;2023-04-26T09:59:47;100963.28;;;17.80;66.43
51297;BME280;37380;45.186;9.792;2023-04-26T10:02:23;100952.31;;;17.43;69.16
51297;BME280;37380;45.186;9.792;2023-04-26T10:04:57;100966.44;;;18.45;71.68
51297;BME280;37380;45.186;9.792;2023-04-26T10:07:53;100924.34;;;18.92;69.10
51297;BME280;37380;45.186;9.792;2023-04-26T10:10:27;100911.09;;;18.83;61.07
51297;BME280;37380;45.186;9.792;2023-04-26T10:13:21;100767.13;;;18.55;54.88
51297;BME280;37380;45.186;9.792;2023-04-26T10:15:49;100961.69;;;20.12;56.29
51297;BME280;37380;45.186;9.792;2023-04-26T10:18:16;100954.53;;;20.74;57.50
51297;BME280;37380;45.186;9.792;2023-04-26T10:20:47;100928.03;;;20.65;56.61
51297;BME280;37380;45.186;9.792;2023-04-26T10:23:19;100910.28;;;20.79;52.67
51297;BME280;37380;45.186;9.792;2023-04-26T10:25:52;100947.53;;;20.41;52.44
51297;BME280;37380;45.186;9.792;2023-04-26T10:35:12;100904.75;;;18.57;56.13
51297;BME280;37380;45.186;9.792;2023-04-26T10:40:37;100935.16;;;20.15;59.32
51297;BME280;37380;45.186;9.792;2023-04-26T10:43:34;100838.59;;;20.73;49.11
51297;BME280;37380;45.186;9.792;2023-04-26T10:49:20;100923.66;;;20.54;45.42
51297;BME280;37380;45.186;9.792;2023-04-26T10:52:08;100864.31;;;20.63;47.15
51297;BME280;37380;45.186;9.792;2023-04-26T10:54:45;100917.31;;;20.91;45.86
51297;BME280;37380;45.186;9.792;2023-04-26T10:57:13;100864.00;;;21.24;47.31
51297;BME280;37380;45.186;9.792;2023-04-26T11:03:16;100805.22;;;21.66;41.98
51297;BME280;37380;45.186;9.792;2023-04-26T11:06:10;100906.94;;;21.91;43.41
51297;BME280;37380;45.186;9.792;2023-04-26T11:12:02;100886.06;;;21.40;43.92
51297;BME280;37380;45.186;9.792;2023-04-26T11:14:30;100870.38;;;20.97;47.74
51297;BME280;37380;45.186;9.792;2023-04-26T11:16:57;100796.31;;;20.21;47.95
51297;BME280;37380;45.186;9.792;2023-04-26T11:19:25;100795.88;;;21.13;43.03
51297;BME280;37380;45.186;9.792;2023-04-26T11:21:52;100802.81;;;21.37;45.43
51297;BME280;37380;45.186;9.792;2023-04-26T11:24:26;100872.25;;;20.65;46.16
51297;BME280;37380;45.186;9.792;2023-04-26T11:26:53;100832.63;;;20.00;44.60
51297;BME280;37380;45.186;9.792;2023-04-26T11:29:27;100762.78;;;20.10;40.44
51297;BME280;37380;45.186;9.792;2023-04-26T11:32:21;100838.69;;;20.54;44.83
51297;BME280;37380;45.186;9.792;2023-04-26T11:34:48;100896.16;;;20.72;44.57
51297;BME280;37380;45.186;9.792;2023-04-26T11:37:17;100869.75;;;20.06;42.14
51297;BME280;37380;45.186;9.792;2023-04-26T11:39:48;100774.34;;;19.33;43.45
51297;BME280;37380;45.186;9.792;2023-04-26T11:42:17;100837.94;;;20.02;42.55
51297;BME280;37380;45.186;9.792;2023-04-26T11:44:57;100844.94;;;20.32;40.66
51297;BME280;37380;45.186;9.792;2023-04-26T11:48:01;100822.88;;;20.08;39.74
51297;BME280;37380;45.186;9.792;2023-04-26T11:51:04;100885.69;;;19.91;38.68
51297;BME280;37380;45.186;9.792;2023-04-26T11:53:59;100781.34;;;19.98;38.19
51297;BME280;37380;45.186;9.792;2023-04-26T11:56:27;100816.69;;;20.11;37.98
51297;BME280;37380;45.186;9.792;2023-04-26T11:58:54;100825.56;;;19.81;39.62
51297;BME280;37380;45.186;9.792;2023-04-26T12:01:26;100729.16;;;20.09;38.89
51297;BME280;37380;45.186;9.792;2023-04-26T12:04:00;100839.72;;;20.00;39.80
51297;BME280;37380;45.186;9.792;2023-04-26T12:07:03;100843.28;;;19.79;39.93
51297;BME280;37380;45.186;9.792;2023-04-26T12:10:12;100841.38;;;20.30;37.63
51297;BME280;37380;45.186;9.792;2023-04-26T12:12:43;100831.53;;;20.72;37.64
51297;BME280;37380;45.186;9.792;2023-04-26T12:15:11;100676.31;;;18.73;38.22
51297;BME280;37380;45.186;9.792;2023-04-26T12:17:53;100830.88;;;19.53;35.05
51297;BME280;37380;45.186;9.792;2023-04-26T12:20:28;100814.06;;;20.00;34.06
51297;BME280;37380;45.186;9.792;2023-04-26T12:23:02;100804.91;;;20.84;33.54
51297;BME280;37380;45.186;9.792;2023-04-26T12:25:31;100769.16;;;21.33;37.26
51297;BME280;37380;45.186;9.792;2023-04-26T12:28:07;100838.56;;;20.79;35.20
51297;BME280;37380;45.186;9.792;2023-04-26T12:31:01;100805.03;;;20.63;34.40
51297;BME280;37380;45.186;9.792;2023-04-26T12:33:30;100837.88;;;20.16;32.87
51297;BME280;37380;45.186;9.792;2023-04-26T12:36:09;100825.34;;;20.74;32.80
51297;BME280;37380;45.186;9.792;2023-04-26T12:38:44;100772.78;;;21.21;33.36
51297;BME280;37380;45.186;9.792;2023-04-26T12:41:40;100831.84;;;21.60;32.92
51297;BME280;37380;45.186;9.792;2023-04-26T12:44:08;100822.72;;;20.59;33.14
51297;BME280;37380;45.186;9.792;2023-04-26T12:46:42;100840.91;;;21.39;34.68
51297;BME280;37380;45.186;9.792;2023-04-26T12:49:48;100787.75;;;21.33;36.10
51297;BME280;37380;45.186;9.792;2023-04-26T12:52:43;100787.72;;;21.42;36.26
51297;BME280;37380;45.186;9.792;2023-04-26T12:55:12;100823.34;;;22.15;34.92
51297;BME280;37380;45.186;9.792;2023-04-26T12:57:41;100733.28;;;21.80;35.05
51297;BME280;37380;45.186;9.792;2023-04-26T13:00:10;100725.28;;;20.78;34.06
51297;BME280;37380;45.186;9.792;2023-04-26T13:02:44;100760.78;;;20.63;33.38
51297;BME280;37380;45.186;9.792;2023-04-26T13:05:45;100835.97;;;20.71;33.95
51297;BME280;37380;45.186;9.792;2023-04-26T13:08:46;100759.94;;;20.55;32.59
51297;BME280;37380;45.186;9.792;2023-04-26T13:11:17;100782.06;;;20.51;31.68
51297;BME280;37380;45.186;9.792;2023-04-26T13:13:44;100781.72;;;21.11;31.95
51297;BME280;37380;45.186;9.792;2023-04-26T13:16:11;100597.53;;;19.93;31.39
51297;BME280;37380;45.186;9.792;2023-04-26T13:18:39;100704.50;;;19.83;31.90
51297;BME280;37380;45.186;9.792;2023-04-26T13:21:07;100625.09;;;19.38;31.67
51297;BME280;37380;45.186;9.792;2023-04-26T13:23:34;100765.22;;;20.52;31.78
51297;BME280;37380;45.186;9.792;2023-04-26T13:26:02;100812.13;;;20.61;30.74
51297;BME280;37380;45.186;9.792;2023-04-26T13:28:36;100811.19;;;20.72;31.29
51297;BME280;37380;45.186;9.792;2023-04-26T13:31:30;100767.06;;;20.36;30.43
51297;BME280;37380;45.186;9.792;2023-04-26T13:33:58;100591.50;;;19.47;30.37
51297;BME280;37380;45.186;9.792;2023-04-26T13:36:25;100662.66;;;20.42;29.79
51297;BME280;37380;45.186;9.792;2023-04-26T13:38:53;100779.13;;;21.00;31.06
51297;BME280;37380;45.186;9.792;2023-04-26T13:41:20;100741.50;;;20.23;30.56
51297;BME280;37380;45.186;9.792;2023-04-26T13:43:55;100806.03;;;20.28;31.02
51297;BME280;37380;45.186;9.792;2023-04-26T13:46:56;100753.75;;;20.53;30.08
51297;BME280;37380;45.186;9.792;2023-04-26T13:49:57;100677.75;;;20.35;29.77
51297;BME280;37380;45.186;9.792;2023-04-26T13:52:59;100739.59;;;20.45;30.04
51297;BME280;37380;45.186;9.792;2023-04-26T13:55:35;100705.97;;;20.53;30.88
51297;BME280;37380;45.186;9.792;2023-04-26T13:58:06;100612.56;;;19.88;30.17
51297;BME280;37380;45.186;9.792;2023-04-26T14:00:36;100673.16;;;20.66;29.53
51297;BME280;37380;45.186;9.792;2023-04-26T14:03:12;100780.72;;;21.27;31.15
51297;BME280;37380;45.186;9.792;2023-04-26T14:06:15;100563.75;;;20.18;29.32
51297;BME280;37380;45.186;9.792;2023-04-26T14:09:09;100624.91;;;21.17;31.20
51297;BME280;37380;45.186;9.792;2023-04-26T14:11:37;100625.03;;;21.86;28.82
51297;BME280;37380;45.186;9.792;2023-04-26T14:14:12;100715.72;;;23.01;30.05
51297;BME280;37380;45.186;9.792;2023-04-26T14:16:42;100507.56;;;22.17;27.38
51297;BME280;37380;45.186;9.792;2023-04-26T14:19:16;100682.06;;;22.92;31.10
51297;BME280;37380;45.186;9.792;2023-04-26T14:21:57;100621.69;;;21.69;28.17
51297;BME280;37380;45.186;9.792;2023-04-26T14:24:30;100673.31;;;21.53;28.28
51297;BME280;37380;45.186;9.792;2023-04-26T14:27:09;100770.81;;;22.31;27.76
51297;BME280;37380;45.186;9.792;2023-04-26T14:29:46;100667.41;;;21.99;28.03
51297;BME280;37380;45.186;9.792;2023-04-26T14:32:40;100723.03;;;22.23;27.96